Time;durP1;ratioP1;P1;durP2;ratioP2;P2;SDS_P1;SDS_P2;PMS_P1;PMS_P2;Temp;Humidity;BMP_temperature;BMP_pressure;BME280_temperature;BME280_humidity;BME280_pressure;Samples;Min_cycle;Max_cycle;Signal;HPM_P1;HPM_P2
2023/05/22 00:01:50;;;;;;;;;;;21.70;49.30;;;;;;5081056;28;19920;-60
2023/05/22 00:04:20;;;;;;;;;;;21.70;49.30;;;;;;5086735;28;19967;-60
2023/05/22 00:06:46;;;;;;;;;;;21.60;49.20;;;;;;5078857;28;20007;-60
2023/05/22 00:09:15;;;;;;;;;;;21.70;49.30;;;;;;5071867;28;19927;-61
2023/05/22 00:11:42;;;;;;;;;;;21.70;49.30;;;;;;5070218;28;20385;-59
2023/05/22 00:14:09;;;;;;;;;;;21.60;49.20;;;;;;5071648;28;19928;-59
2023/05/22 00:19:17;;;;;;;;;;;21.60;49.20;;;;;;5094447;28;19920;-60
2023/05/22 00:21:43;;;;;;;;;;;21.60;49.20;;;;;;5070117;28;19931;-61
2023/05/22 00:24:10;;;;;;;;;;;21.70;49.40;;;;;;5054802;28;19967;-60
2023/05/22 00:26:38;;;;;;;;;;;21.60;49.20;;;;;;5069703;28;19924;-60
2023/05/22 00:29:05;;;;;;;;;;;21.60;49.20;;;;;;5071734;28;19924;-60
2023/05/22 00:31:32;;;;;;;;;;;21.70;49.30;;;;;;5073233;28;20078;-60
2023/05/22 00:34:01;;;;;;;;;;;21.60;49.20;;;;;;5067917;28;19920;-58
2023/05/22 00:36:28;;;;;;;;;;;21.60;49.20;;;;;;5069969;28;19921;-59
2023/05/22 00:38:55;;;;;;;;;;;21.70;49.30;;;;;;5071695;28;19921;-60
2023/05/22 00:41:22;;;;;;;;;;;21.60;49.20;;;;;;5072520;28;19920;-58
2023/05/22 00:43:51;;;;;;;;;;;21.60;49.20;;;;;;5071419;28;19926;-60
2023/05/22 00:46:21;;;;;;;;;;;21.60;49.20;;;;;;5070785;28;19993;-59
2023/05/22 00:48:48;;;;;;;;;;;21.60;49.20;;;;;;5073341;28;19927;-59
2023/05/22 00:51:15;;;;;;;;;;;21.60;49.20;;;;;;5071984;28;19967;-60
2023/05/22 00:53:41;;;;;;;;;;;21.60;49.20;;;;;;5071422;28;19932;-60
2023/05/22 00:56:09;;;;;;;;;;;21.60;49.20;;;;;;5068295;28;19924;-60
2023/05/22 00:58:36;;;;;;;;;;;21.60;49.20;;;;;;5071476;28;19974;-60
2023/05/22 01:01:06;;;;;;;;;;;21.60;49.20;;;;;;5073426;28;19921;-60
2023/05/22 01:03:33;;;;;;;;;;;21.60;49.20;;;;;;5069941;28;19920;-60
2023/05/22 01:06:00;;;;;;;;;;;21.60;49.20;;;;;;5095312;28;19921;-60
2023/05/22 01:08:26;;;;;;;;;;;21.60;49.20;;;;;;5069234;28;19942;-60
2023/05/22 01:10:56;;;;;;;;;;;21.60;49.20;;;;;;5068354;28;19920;-61
2023/05/22 01:13:26;;;;;;;;;;;21.60;49.20;;;;;;5091524;28;20346;-60
2023/05/22 01:15:55;;;;;;;;;;;21.60;49.20;;;;;;5069949;28;19928;-59
2023/05/22 01:18:28;;;;;;;;;;;21.60;49.20;;;;;;5067476;28;19927;-59
2023/05/22 01:20:57;;;;;;;;;;;21.60;49.20;;;;;;5070344;28;19975;-59
2023/05/22 01:23:44;;;;;;;;;;;21.60;49.20;;;;;;5068007;28;20344;-60
2023/05/22 01:26:30;;;;;;;;;;;21.60;49.10;;;;;;5062806;28;19942;-60
2023/05/22 01:29:11;;;;;;;;;;;21.60;49.20;;;;;;5072486;28;19933;-59
2023/05/22 01:31:40;;;;;;;;;;;21.60;49.10;;;;;;5073201;28;19932;-58
2023/05/22 01:34:08;;;;;;;;;;;21.60;49.10;;;;;;5077073;28;19920;-60
2023/05/22 01:36:35;;;;;;;;;;;21.60;49.10;;;;;;5075379;28;19939;-59
2023/05/22 01:39:05;;;;;;;;;;;21.60;49.10;;;;;;5098542;28;19927;-60
2023/05/22 01:41:34;;;;;;;;;;;21.60;49.10;;;;;;5075768;28;19970;-60
2023/05/22 01:44:01;;;;;;;;;;;21.60;49.10;;;;;;5076301;28;19921;-59
2023/05/22 01:46:28;;;;;;;;;;;21.60;49.10;;;;;;5074056;28;20385;-60
2023/05/22 01:49:07;;;;;;;;;;;21.60;49.10;;;;;;5075508;28;19988;-60
2023/05/22 01:51:38;;;;;;;;;;;21.60;49.10;;;;;;5073556;28;19927;-60
2023/05/22 01:54:08;;;;;;;;;;;21.60;49.70;;;;;;5071164;28;19924;-60
2023/05/22 01:56:37;;;;;;;;;;;21.60;49.10;;;;;;5076309;28;19924;-57
2023/05/22 01:59:04;;;;;;;;;;;21.60;49.10;;;;;;5070456;28;19924;-60
2023/05/22 02:01:31;;;;;;;;;;;21.60;49.10;;;;;;5077740;28;19948;-59
2023/05/22 02:03:59;;;;;;;;;;;21.60;49.10;;;;;;5075215;28;19966;-59
2023/05/22 02:06:26;;;;;;;;;;;21.60;49.10;;;;;;5070679;28;20348;-60
2023/05/22 02:08:53;;;;;;;;;;;21.60;49.10;;;;;;5075304;28;19942;-58
2023/05/22 02:11:20;;;;;;;;;;;21.60;49.20;;;;;;5070951;28;19933;-59
2023/05/22 02:13:47;;;;;;;;;;;21.60;49.10;;;;;;5069638;28;19926;-59
2023/05/22 02:16:14;;;;;;;;;;;21.60;49.20;;;;;;5075024;28;19989;-60
2023/05/22 02:18:42;;;;;;;;;;;21.60;49.10;;;;;;5074794;28;19920;-60
2023/05/22 02:21:10;;;;;;;;;;;21.60;49.10;;;;;;5071006;28;19974;-58
2023/05/22 02:23:37;;;;;;;;;;;21.60;49.10;;;;;;5076472;28;19925;-59
2023/05/22 02:26:04;;;;;;;;;;;21.60;49.10;;;;;;5076843;28;20007;-59
2023/05/22 02:28:31;;;;;;;;;;;21.60;49.10;;;;;;5073750;28;19932;-59
2023/05/22 02:31:02;;;;;;;;;;;21.60;49.10;;;;;;5070008;28;19966;-60
2023/05/22 02:33:29;;;;;;;;;;;21.60;49.10;;;;;;5071685;28;19927;-60
2023/05/22 02:35:56;;;;;;;;;;;21.60;49.10;;;;;;5077082;28;19920;-60
2023/05/22 02:38:24;;;;;;;;;;;21.60;49.10;;;;;;5075644;28;19920;-60
2023/05/22 02:40:54;;;;;;;;;;;21.60;49.10;;;;;;5073903;28;19928;-59
2023/05/22 02:43:21;;;;;;;;;;;21.60;49.10;;;;;;5074624;28;19935;-60
2023/05/22 02:45:49;;;;;;;;;;;21.60;49.10;;;;;;5077850;28;19920;-60
2023/05/22 02:48:16;;;;;;;;;;;21.60;49.10;;;;;;5095628;28;19931;-60
2023/05/22 02:50:47;;;;;;;;;;;21.60;49.10;;;;;;5071912;28;19924;-60
2023/05/22 02:53:14;;;;;;;;;;;21.60;49.00;;;;;;5072570;28;20086;-59
2023/05/22 02:55:42;;;;;;;;;;;21.60;49.00;;;;;;5076506;28;20309;-59
2023/05/22 02:58:10;;;;;;;;;;;21.60;49.10;;;;;;5073992;28;19932;-58
2023/05/22 03:00:37;;;;;;;;;;;21.60;49.10;;;;;;5075319;28;20031;-60
2023/05/22 03:03:04;;;;;;;;;;;21.60;49.00;;;;;;5069795;28;20348;-59
2023/05/22 03:05:31;;;;;;;;;;;21.50;49.00;;;;;;5098655;28;19981;-60
2023/05/22 03:07:58;;;;;;;;;;;21.60;49.00;;;;;;5075127;28;19920;-60
2023/05/22 03:10:25;;;;;;;;;;;21.60;49.00;;;;;;5075675;28;19920;-59
2023/05/22 03:12:53;;;;;;;;;;;21.60;49.00;;;;;;5073352;28;19920;-58
2023/05/22 03:15:20;;;;;;;;;;;21.50;48.90;;;;;;5074023;28;19978;-59
2023/05/22 03:17:46;;;;;;;;;;;21.60;49.00;;;;;;5075313;28;19954;-60
2023/05/22 03:20:15;;;;;;;;;;;21.60;49.00;;;;;;5068801;28;19966;-60
2023/05/22 03:22:42;;;;;;;;;;;21.60;49.00;;;;;;5075731;28;19932;-60
2023/05/22 03:25:09;;;;;;;;;;;21.50;48.90;;;;;;5070061;28;19973;-60
2023/05/22 03:27:36;;;;;;;;;;;21.60;49.00;;;;;;5069111;28;19924;-60
2023/05/22 03:30:05;;;;;;;;;;;21.60;49.00;;;;;;5067669;28;20317;-60
2023/05/22 03:32:35;;;;;;;;;;;21.60;49.00;;;;;;5074247;28;19939;-60
2023/05/22 03:35:02;;;;;;;;;;;21.50;48.90;;;;;;5072777;28;19928;-60
2023/05/22 03:37:29;;;;;;;;;;;21.60;49.00;;;;;;5073772;28;19924;-60
2023/05/22 03:39:59;;;;;;;;;;;21.60;49.00;;;;;;5074152;28;19932;-59
2023/05/22 03:42:25;;;;;;;;;;;21.60;48.90;;;;;;5068198;28;19921;-60
2023/05/22 03:44:52;;;;;;;;;;;21.50;48.80;;;;;;5070609;28;19954;-59
2023/05/22 03:47:20;;;;;;;;;;;21.50;48.80;;;;;;5071818;28;19921;-59
2023/05/22 03:49:47;;;;;;;;;;;21.50;48.80;;;;;;5071233;28;19920;-60
2023/05/22 03:52:16;;;;;;;;;;;21.50;48.80;;;;;;5065106;28;20140;-60
2023/05/22 03:54:43;;;;;;;;;;;21.50;48.80;;;;;;5075295;28;19973;-60
2023/05/22 03:57:10;;;;;;;;;;;21.60;49.50;;;;;;5069475;28;19974;-61
2023/05/22 03:59:36;;;;;;;;;;;21.50;48.80;;;;;;5071185;28;19920;-59
2023/05/22 04:02:04;;;;;;;;;;;21.60;48.90;;;;;;5094891;28;19920;-60
2023/05/22 04:04:32;;;;;;;;;;;21.50;49.10;;;;;;5073492;28;19924;-60
2023/05/22 04:07:01;;;;;;;;;;;21.50;48.80;;;;;;5069052;28;19939;-60
2023/05/22 04:09:30;;;;;;;;;;;21.50;48.80;;;;;;5071742;28;19927;-60
2023/05/22 04:11:57;;;;;;;;;;;21.50;48.70;;;;;;5073769;28;19973;-60
2023/05/22 04:14:24;;;;;;;;;;;21.50;48.70;;;;;;5076448;28;19920;-61
2023/05/22 04:16:52;;;;;;;;;;;21.60;48.80;;;;;;5073727;28;20428;-60
2023/05/22 04:19:20;;;;;;;;;;;21.50;48.70;;;;;;5071257;28;19924;-59
2023/05/22 04:21:49;;;;;;;;;;;21.50;48.70;;;;;;5066358;28;19921;-60
2023/05/22 04:24:27;;;;;;;;;;;21.50;48.70;;;;;;5069011;28;19921;-60
2023/05/22 04:26:54;;;;;;;;;;;21.50;48.70;;;;;;5071126;28;19970;-60
2023/05/22 04:29:21;;;;;;;;;;;21.50;48.70;;;;;;5074811;28;19931;-60
2023/05/22 04:31:48;;;;;;;;;;;21.50;48.70;;;;;;5076950;28;19950;-61
2023/05/22 04:34:15;;;;;;;;;;;21.50;48.60;;;;;;5068509;28;19921;-59
2023/05/22 04:37:02;;;;;;;;;;;21.50;48.60;;;;;;5071051;28;19955;-60
2023/05/22 04:39:30;;;;;;;;;;;21.60;48.70;;;;;;5068052;28;19974;-60
2023/05/22 04:42:04;;;;;;;;;;;21.50;48.60;;;;;;5070664;28;19963;-60
2023/05/22 04:44:33;;;;;;;;;;;21.50;48.60;;;;;;5073325;28;19936;-58
2023/05/22 04:47:00;;;;;;;;;;;21.50;48.60;;;;;;5073938;28;19933;-60
2023/05/22 04:49:30;;;;;;;;;;;21.50;48.60;;;;;;5068157;28;19962;-58
2023/05/22 04:51:57;;;;;;;;;;;21.50;48.60;;;;;;5069262;28;19927;-60
2023/05/22 04:54:24;;;;;;;;;;;21.50;48.60;;;;;;5073105;28;19920;-59
2023/05/22 04:56:52;;;;;;;;;;;21.50;48.60;;;;;;5069240;28;20007;-58
2023/05/22 04:59:22;;;;;;;;;;;21.50;48.60;;;;;;5070510;28;20359;-59
2023/05/22 05:01:49;;;;;;;;;;;21.50;48.60;;;;;;5065008;28;19981;-60
2023/05/22 05:04:15;;;;;;;;;;;21.50;48.50;;;;;;5068595;28;19927;-60
2023/05/22 05:06:42;;;;;;;;;;;21.50;48.60;;;;;;5069963;28;19939;-60
2023/05/22 05:09:09;;;;;;;;;;;21.50;48.50;;;;;;5069893;28;19921;-58
2023/05/22 05:11:39;;;;;;;;;;;21.50;48.60;;;;;;5068601;28;19970;-59
2023/05/22 05:14:08;;;;;;;;;;;21.50;48.60;;;;;;5092430;28;19950;-60
2023/05/22 05:16:34;;;;;;;;;;;21.50;48.50;;;;;;5066638;28;20370;-60
2023/05/22 05:19:02;;;;;;;;;;;21.50;48.50;;;;;;5071633;28;19931;-60
2023/05/22 05:21:30;;;;;;;;;;;21.50;48.50;;;;;;5071737;28;19972;-59
2023/05/22 05:23:56;;;;;;;;;;;21.50;48.50;;;;;;5070094;28;19920;-60
2023/05/22 05:26:23;;;;;;;;;;;21.50;48.50;;;;;;5092137;28;19929;-59
2023/05/22 05:28:50;;;;;;;;;;;21.60;48.60;;;;;;5069082;28;19927;-61
2023/05/22 05:31:19;;;;;;;;;;;21.50;48.50;;;;;;5073705;28;20363;-61
2023/05/22 05:33:49;;;;;;;;;;;21.50;48.50;;;;;;5072113;28;20433;-60
2023/05/22 05:36:16;;;;;;;;;;;21.50;48.50;;;;;;5069423;28;19928;-60
2023/05/22 05:38:45;;;;;;;;;;;21.50;48.50;;;;;;5071898;28;20003;-60
2023/05/22 05:41:12;;;;;;;;;;;21.50;48.40;;;;;;5068745;28;19924;-59
2023/05/22 05:43:39;;;;;;;;;;;21.50;48.40;;;;;;5064818;28;19940;-61
2023/05/22 05:46:06;;;;;;;;;;;21.50;48.40;;;;;;5067364;28;19951;-60
2023/05/22 05:48:35;;;;;;;;;;;21.50;48.40;;;;;;5070017;28;19920;-60
2023/05/22 05:51:01;;;;;;;;;;;21.50;48.40;;;;;;5067738;28;19932;-60
2023/05/22 05:53:28;;;;;;;;;;;21.50;48.40;;;;;;5093976;28;20458;-60
2023/05/22 05:55:55;;;;;;;;;;;21.50;48.40;;;;;;5070273;28;19940;-60
2023/05/22 05:58:22;;;;;;;;;;;21.60;48.50;;;;;;5067714;28;19931;-59
2023/05/22 06:00:49;;;;;;;;;;;21.50;48.40;;;;;;5068209;28;19974;-60
2023/05/22 06:03:16;;;;;;;;;;;21.60;48.50;;;;;;5066935;28;19920;-58
2023/05/22 06:05:45;;;;;;;;;;;21.50;48.40;;;;;;5089123;28;19928;-60
2023/05/22 06:08:12;;;;;;;;;;;21.60;48.50;;;;;;5068246;28;19964;-60
2023/05/22 06:10:39;;;;;;;;;;;21.60;48.50;;;;;;5070135;28;19920;-59
2023/05/22 06:13:06;;;;;;;;;;;21.50;48.40;;;;;;5068382;28;19975;-59
2023/05/22 06:15:33;;;;;;;;;;;21.60;48.50;;;;;;5070243;28;19920;-61
2023/05/22 06:18:01;;;;;;;;;;;21.60;48.50;;;;;;5072147;28;19921;-60
2023/05/22 06:20:27;;;;;;;;;;;21.50;48.40;;;;;;5072646;28;20162;-59
2023/05/22 06:22:56;;;;;;;;;;;21.60;48.50;;;;;;5073898;28;19920;-60
2023/05/22 06:25:24;;;;;;;;;;;21.50;48.40;;;;;;5072176;28;19924;-60
2023/05/22 06:27:51;;;;;;;;;;;21.50;48.40;;;;;;5069755;28;19933;-59
2023/05/22 06:30:18;;;;;;;;;;;21.60;48.40;;;;;;5071979;28;19966;-58
2023/05/22 06:32:45;;;;;;;;;;;21.50;48.40;;;;;;5070570;28;19932;-60
2023/05/22 06:35:11;;;;;;;;;;;21.50;48.30;;;;;;5092307;28;19936;-58
2023/05/22 06:37:38;;;;;;;;;;;21.60;48.40;;;;;;5072777;28;19920;-59
2023/05/22 06:40:08;;;;;;;;;;;21.50;48.40;;;;;;5070852;28;19921;-59
2023/05/22 06:42:35;;;;;;;;;;;21.60;48.50;;;;;;5065528;28;19920;-62
2023/05/22 06:45:02;;;;;;;;;;;21.60;48.50;;;;;;5070845;28;19928;-61
2023/05/22 06:47:29;;;;;;;;;;;21.50;48.40;;;;;;5069342;28;19924;-62
2023/05/22 06:49:56;;;;;;;;;;;21.60;48.50;;;;;;5057597;28;19932;-61
2023/05/22 06:52:23;;;;;;;;;;;21.60;48.50;;;;;;5070272;28;19931;-61
2023/05/22 06:54:51;;;;;;;;;;;21.60;48.50;;;;;;5072717;28;19925;-63
2023/05/22 06:57:19;;;;;;;;;;;21.60;48.40;;;;;;5070296;28;19925;-61
2023/05/22 06:59:47;;;;;;;;;;;21.60;48.30;;;;;;5065486;28;19930;-60
2023/05/22 07:02:13;;;;;;;;;;;21.60;48.30;;;;;;5068182;28;19927;-64
2023/05/22 07:04:40;;;;;;;;;;;21.60;48.30;;;;;;5092928;27;19982;-62
2023/05/22 07:07:08;;;;;;;;;;;21.60;48.30;;;;;;5066920;28;20015;-61
2023/05/22 07:09:34;;;;;;;;;;;21.60;48.20;;;;;;5067738;28;19920;-63
2023/05/22 07:12:01;;;;;;;;;;;21.60;48.20;;;;;;5070397;28;20097;-64
2023/05/22 07:14:29;;;;;;;;;;;21.60;48.20;;;;;;5068406;28;19974;-59
2023/05/22 07:16:56;;;;;;;;;;;21.60;48.20;;;;;;5071200;28;19956;-61
2023/05/22 07:19:23;;;;;;;;;;;21.60;48.20;;;;;;5064913;28;19974;-62
2023/05/22 07:21:50;;;;;;;;;;;21.60;48.10;;;;;;5069714;28;19927;-60
2023/05/22 07:24:16;;;;;;;;;;;21.60;48.10;;;;;;5069221;28;19925;-59
2023/05/22 07:26:45;;;;;;;;;;;21.60;48.10;;;;;;5072433;28;19920;-63
2023/05/22 07:29:13;;;;;;;;;;;21.60;48.00;;;;;;5069649;28;20323;-62
2023/05/22 07:31:42;;;;;;;;;;;21.60;48.00;;;;;;5093708;28;19931;-63
2023/05/22 07:34:08;;;;;;;;;;;21.60;48.00;;;;;;5085623;28;19928;-59
2023/05/22 07:36:35;;;;;;;;;;;21.60;47.90;;;;;;5070234;28;19924;-62
2023/05/22 07:39:03;;;;;;;;;;;21.60;47.90;;;;;;5071435;28;19931;-60
2023/05/22 07:41:30;;;;;;;;;;;21.60;47.90;;;;;;5071544;28;19927;-60
2023/05/22 07:43:57;;;;;;;;;;;21.60;47.90;;;;;;5072100;28;19986;-61
2023/05/22 07:46:24;;;;;;;;;;;21.60;47.90;;;;;;5072242;28;19920;-63
2023/05/22 07:48:53;;;;;;;;;;;21.60;47.80;;;;;;5075392;28;19980;-61
2023/05/22 07:51:20;;;;;;;;;;;21.70;47.90;;;;;;5066401;28;19920;-61
2023/05/22 07:53:46;;;;;;;;;;;21.60;47.80;;;;;;5068109;28;19921;-62
2023/05/22 07:56:13;;;;;;;;;;;21.60;47.80;;;;;;5069466;28;20008;-60
2023/05/22 07:58:40;;;;;;;;;;;21.70;47.90;;;;;;5069106;28;19955;-63
2023/05/22 08:01:07;;;;;;;;;;;21.70;47.80;;;;;;5073736;28;20274;-61
2023/05/22 08:03:34;;;;;;;;;;;21.70;47.80;;;;;;5067480;28;20397;-62
2023/05/22 08:06:02;;;;;;;;;;;21.70;47.80;;;;;;5069227;28;19974;-63
2023/05/22 08:08:29;;;;;;;;;;;21.70;47.80;;;;;;5070176;28;20002;-62
2023/05/22 08:10:56;;;;;;;;;;;21.70;47.80;;;;;;5074288;28;19927;-63
2023/05/22 08:13:25;;;;;;;;;;;21.70;47.70;;;;;;5064986;28;19932;-62
2023/05/22 08:15:52;;;;;;;;;;;21.70;47.70;;;;;;5065850;28;20181;-63
2023/05/22 08:18:19;;;;;;;;;;;21.70;48.30;;;;;;5072411;28;19927;-63
2023/05/22 08:20:46;;;;;;;;;;;21.80;47.80;;;;;;5069951;28;19928;-62
2023/05/22 08:23:14;;;;;;;;;;;21.70;47.70;;;;;;5075207;28;19924;-62
2023/05/22 08:25:41;;;;;;;;;;;21.80;47.80;;;;;;5070026;28;19973;-63
2023/05/22 08:28:08;;;;;;;;;;;21.80;47.80;;;;;;5067566;28;19927;-62
2023/05/22 08:30:35;;;;;;;;;;;21.80;47.70;;;;;;5069772;28;19990;-63
2023/05/22 08:33:02;;;;;;;;;;;21.80;47.80;;;;;;5067132;28;20120;-63
2023/05/22 08:35:29;;;;;;;;;;;21.80;47.80;;;;;;5066491;28;19921;-62
2023/05/22 08:37:57;;;;;;;;;;;21.80;47.80;;;;;;5063932;28;19920;-62
2023/05/22 08:40:28;;;;;;;;;;;21.90;47.90;;;;;;5064659;28;19925;-63
2023/05/22 08:42:56;;;;;;;;;;;21.90;47.80;;;;;;5068680;28;20373;-62
2023/05/22 08:45:28;;;;;;;;;;;21.80;47.80;;;;;;5069376;28;19939;-61
2023/05/22 08:47:56;;;;;;;;;;;21.80;47.80;;;;;;5072774;28;19924;-61
2023/05/22 08:50:23;;;;;;;;;;;21.80;47.80;;;;;;5072079;28;19924;-59
2023/05/22 08:52:51;;;;;;;;;;;21.90;47.80;;;;;;5072679;28;19924;-60
2023/05/22 08:55:19;;;;;;;;;;;21.90;47.90;;;;;;5070159;28;19939;-61
2023/05/22 08:57:49;;;;;;;;;;;21.90;48.40;;;;;;5066092;28;20201;-59
2023/05/22 09:00:17;;;;;;;;;;;21.90;47.90;;;;;;5069933;28;19935;-61
2023/05/22 09:02:44;;;;;;;;;;;21.90;47.80;;;;;;5071309;28;19974;-60
2023/05/22 09:05:11;;;;;;;;;;;21.90;47.80;;;;;;5077581;28;19924;-59
2023/05/22 09:07:39;;;;;;;;;;;21.90;47.80;;;;;;5073372;28;19924;-63
2023/05/22 09:10:06;;;;;;;;;;;21.90;47.80;;;;;;5075317;28;19925;-62
2023/05/22 09:12:33;;;;;;;;;;;21.90;47.80;;;;;;5070804;28;19924;-61
2023/05/22 09:15:06;;;;;;;;;;;21.90;47.80;;;;;;5076053;28;19920;-60
2023/05/22 09:17:33;;;;;;;;;;;21.90;47.80;;;;;;5105023;28;19924;-60
2023/05/22 09:19:59;;;;;;;;;;;22.00;47.90;;;;;;5070869;28;19920;-62
2023/05/22 09:22:29;;;;;;;;;;;22.00;48.00;;;;;;5067598;28;19931;-60
2023/05/22 09:24:58;;;;;;;;;;;22.00;47.90;;;;;;5067608;28;19924;-60
2023/05/22 09:27:24;;;;;;;;;;;22.00;47.90;;;;;;5079881;28;19921;-61
2023/05/22 09:29:52;;;;;;;;;;;22.00;47.80;;;;;;5069948;28;19927;-61
2023/05/22 09:32:20;;;;;;;;;;;22.00;47.80;;;;;;5066927;28;19926;-62
2023/05/22 09:34:47;;;;;;;;;;;22.00;47.80;;;;;;5065481;28;19975;-60
2023/05/22 09:37:14;;;;;;;;;;;22.10;47.90;;;;;;5062841;28;19924;-59
2023/05/22 09:39:41;;;;;;;;;;;22.00;47.70;;;;;;5097467;28;20290;-60
2023/05/22 09:42:08;;;;;;;;;;;22.00;47.60;;;;;;5069412;28;19932;-59
2023/05/22 09:44:35;;;;;;;;;;;22.10;47.60;;;;;;5069942;28;20013;-60
2023/05/22 09:47:02;;;;;;;;;;;22.10;47.60;;;;;;5069775;28;19975;-61
2023/05/22 09:49:31;;;;;;;;;;;22.10;47.60;;;;;;5076211;28;20443;-60
2023/05/22 09:51:57;;;;;;;;;;;22.10;47.60;;;;;;5070640;28;20285;-59
2023/05/22 09:54:25;;;;;;;;;;;22.10;47.50;;;;;;5067242;28;19978;-60
2023/05/22 09:56:51;;;;;;;;;;;22.10;47.50;;;;;;5061191;28;19920;-61
2023/05/22 09:59:20;;;;;;;;;;;22.10;47.50;;;;;;5069332;28;19970;-60
2023/05/22 10:01:47;;;;;;;;;;;22.10;47.40;;;;;;5074925;28;19920;-61
2023/05/22 10:04:14;;;;;;;;;;;22.10;47.40;;;;;;5070220;28;20317;-60
2023/05/22 10:06:42;;;;;;;;;;;22.10;47.30;;;;;;5068840;28;20009;-59
2023/05/22 10:09:09;;;;;;;;;;;22.20;48.00;;;;;;5072168;28;20011;-59
2023/05/22 10:11:36;;;;;;;;;;;22.20;47.30;;;;;;5073489;28;19963;-61
2023/05/22 10:14:03;;;;;;;;;;;22.10;47.20;;;;;;5103166;28;19933;-59
2023/05/22 10:16:30;;;;;;;;;;;22.20;47.30;;;;;;5063542;28;19928;-61
2023/05/22 10:18:57;;;;;;;;;;;22.10;47.20;;;;;;5075858;28;20433;-60
2023/05/22 10:21:24;;;;;;;;;;;22.20;47.30;;;;;;5098885;28;19974;-61
2023/05/22 10:23:52;;;;;;;;;;;22.20;47.20;;;;;;5070548;28;20442;-59
2023/05/22 10:26:19;;;;;;;;;;;22.20;47.20;;;;;;5068010;28;19921;-60
2023/05/22 10:28:47;;;;;;;;;;;22.20;47.30;;;;;;5076359;28;19920;-62
2023/05/22 10:31:14;;;;;;;;;;;22.20;47.20;;;;;;5077874;28;19928;-62
2023/05/22 10:33:41;;;;;;;;;;;22.30;47.30;;;;;;5072381;28;19920;-62
2023/05/22 10:36:08;;;;;;;;;;;22.20;47.20;;;;;;5068247;28;19921;-62
2023/05/22 10:38:47;;;;;;;;;;;22.30;47.30;;;;;;5062190;28;19951;-62
2023/05/22 10:41:15;;;;;;;;;;;22.20;47.20;;;;;;5095452;28;19929;-62
2023/05/22 10:43:42;;;;;;;;;;;22.30;47.30;;;;;;5075830;28;19924;-62
2023/05/22 10:46:10;;;;;;;;;;;22.30;47.20;;;;;;5070418;28;19920;-61
2023/05/22 10:48:37;;;;;;;;;;;22.30;47.20;;;;;;5063582;28;19935;-62
2023/05/22 10:51:04;;;;;;;;;;;22.30;47.00;;;;;;5076351;28;19924;-61
2023/05/22 10:53:31;;;;;;;;;;;22.30;46.90;;;;;;5077593;28;19950;-61
2023/05/22 10:56:01;;;;;;;;;;;22.30;46.80;;;;;;5064654;28;19987;-62
2023/05/22 10:58:30;;;;;;;;;;;22.30;46.70;;;;;;5064733;28;19920;-60
2023/05/22 11:01:09;;;;;;;;;;;22.40;46.60;;;;;;5072363;28;19920;-59
2023/05/22 11:03:57;;;;;;;;;;;22.40;46.50;;;;;;5066794;28;19939;-62
2023/05/22 11:06:31;;;;;;;;;;;22.40;46.40;;;;;;5069843;28;19921;-61
2023/05/22 11:08:58;;;;;;;;;;;22.40;46.20;;;;;;5069998;28;19921;-61
2023/05/22 11:11:25;;;;;;;;;;;22.40;45.90;;;;;;5064386;28;19994;-59
2023/05/22 11:13:53;;;;;;;;;;;22.50;45.70;;;;;;5069604;28;19951;-59
2023/05/22 11:16:21;;;;;;;;;;;22.50;45.40;;;;;;5069764;28;19924;-59
2023/05/22 11:18:48;;;;;;;;;;;22.60;45.40;;;;;;5067981;28;20457;-60
2023/05/22 11:21:15;;;;;;;;;;;22.50;45.20;;;;;;5071797;28;19943;-61
2023/05/22 11:23:42;;;;;;;;;;;22.60;45.20;;;;;;5069383;28;20329;-64
2023/05/22 11:26:23;;;;;;;;;;;22.60;45.30;;;;;;5070366;28;19927;-61
2023/05/22 11:28:50;;;;;;;;;;;22.60;45.40;;;;;;5068815;28;19920;-58
2023/05/22 11:31:19;;;;;;;;;;;22.60;45.20;;;;;;5072758;28;19920;-59
2023/05/22 11:33:46;;;;;;;;;;;22.60;45.10;;;;;;5067193;28;19943;-61
2023/05/22 11:36:13;;;;;;;;;;;22.70;45.20;;;;;;5073631;28;19930;-61
2023/05/22 11:38:40;;;;;;;;;;;22.70;45.60;;;;;;5072447;28;19929;-62
2023/05/22 11:41:08;;;;;;;;;;;22.70;44.90;;;;;;5100885;28;19924;-59
2023/05/22 11:43:35;;;;;;;;;;;22.80;45.10;;;;;;5100180;28;19932;-62
2023/05/22 11:46:05;;;;;;;;;;;22.80;45.10;;;;;;5068022;28;19950;-62
2023/05/22 11:48:33;;;;;;;;;;;22.90;45.10;;;;;;5073844;28;19967;-61
2023/05/22 11:51:00;;;;;;;;;;;22.90;45.10;;;;;;5069217;28;19936;-62
2023/05/22 11:53:27;;;;;;;;;;;22.90;44.90;;;;;;5069648;28;19920;-61
2023/05/22 11:55:54;;;;;;;;;;;22.90;44.80;;;;;;5068754;28;19920;-62
2023/05/22 11:58:21;;;;;;;;;;;23.00;45.00;;;;;;5067971;28;19939;-62
2023/05/22 12:00:48;;;;;;;;;;;22.90;45.10;;;;;;5067224;28;19925;-60
2023/05/22 12:03:16;;;;;;;;;;;22.90;45.20;;;;;;5066547;28;19920;-60
2023/05/22 12:05:46;;;;;;;;;;;22.90;45.40;;;;;;5063855;28;20336;-61
2023/05/22 12:08:13;;;;;;;;;;;22.90;45.50;;;;;;5067609;28;19933;-62
2023/05/22 12:10:46;;;;;;;;;;;22.90;45.50;;;;;;5069557;28;19974;-61
2023/05/22 12:13:12;;;;;;;;;;;22.90;45.60;;;;;;5070175;28;20019;-56
2023/05/22 12:15:39;;;;;;;;;;;22.90;45.70;;;;;;5103151;28;20558;-63
2023/05/22 12:18:08;;;;;;;;;;;22.90;45.70;;;;;;5067702;28;20014;-62
2023/05/22 12:20:35;;;;;;;;;;;22.80;45.70;;;;;;5067251;28;19970;-61
2023/05/22 12:23:04;;;;;;;;;;;22.80;45.70;;;;;;5067568;28;19932;-60
2023/05/22 12:25:33;;;;;;;;;;;22.80;45.70;;;;;;5070134;28;19920;-61
2023/05/22 12:27:59;;;;;;;;;;;22.80;45.70;;;;;;5074277;28;19932;-56
2023/05/22 12:30:26;;;;;;;;;;;22.80;45.70;;;;;;5071244;28;19966;-61
2023/05/22 12:32:53;;;;;;;;;;;22.80;45.80;;;;;;5070028;28;19981;-62
2023/05/22 12:35:20;;;;;;;;;;;22.80;45.70;;;;;;5071812;28;19927;-62
2023/05/22 12:37:50;;;;;;;;;;;22.80;45.60;;;;;;5091056;28;19966;-61
2023/05/22 12:40:18;;;;;;;;;;;22.80;45.50;;;;;;5068024;28;19921;-59
2023/05/22 12:42:45;;;;;;;;;;;22.80;45.40;;;;;;5059899;28;19958;-61
2023/05/22 12:45:16;;;;;;;;;;;22.80;45.40;;;;;;5066282;28;19998;-61
2023/05/22 12:47:43;;;;;;;;;;;22.80;45.40;;;;;;5066248;28;19928;-62
2023/05/22 12:50:10;;;;;;;;;;;22.80;45.40;;;;;;5067634;28;20274;-60
2023/05/22 12:52:36;;;;;;;;;;;22.80;45.40;;;;;;5061295;28;19924;-58
2023/05/22 12:55:03;;;;;;;;;;;22.80;45.30;;;;;;5066105;28;19944;-60
2023/05/22 12:57:31;;;;;;;;;;;22.80;45.30;;;;;;5064429;28;19921;-61
2023/05/22 12:59:58;;;;;;;;;;;22.90;45.40;;;;;;5064928;28;19921;-62
2023/05/22 13:02:25;;;;;;;;;;;22.80;45.60;;;;;;5065999;28;19925;-60
2023/05/22 13:04:54;;;;;;;;;;;22.80;45.30;;;;;;5066927;28;19921;-62
2023/05/22 13:07:20;;;;;;;;;;;22.80;45.30;;;;;;5067320;28;19965;-61
2023/05/22 13:09:47;;;;;;;;;;;22.80;45.20;;;;;;5062218;28;19973;-59
2023/05/22 13:12:14;;;;;;;;;;;22.80;45.30;;;;;;5069695;28;19981;-60
2023/05/22 13:14:42;;;;;;;;;;;22.80;45.20;;;;;;5068669;28;19982;-60
2023/05/22 13:17:09;;;;;;;;;;;22.90;45.30;;;;;;5093058;28;19920;-59
2023/05/22 13:19:36;;;;;;;;;;;22.80;45.20;;;;;;5064779;28;20333;-61
2023/05/22 13:22:03;;;;;;;;;;;22.90;45.30;;;;;;5066836;28;19921;-58
2023/05/22 13:24:30;;;;;;;;;;;22.80;45.20;;;;;;5070583;28;19970;-59
2023/05/22 13:26:57;;;;;;;;;;;22.80;45.10;;;;;;5069226;28;19966;-60
2023/05/22 13:29:24;;;;;;;;;;;22.80;45.10;;;;;;5071843;28;19947;-60
2023/05/22 13:31:52;;;;;;;;;;;22.80;45.20;;;;;;5073570;28;19921;-59
2023/05/22 13:34:19;;;;;;;;;;;22.80;45.30;;;;;;5074737;28;19924;-61
2023/05/22 13:36:45;;;;;;;;;;;22.80;45.20;;;;;;5099050;28;19993;-60
2023/05/22 13:39:13;;;;;;;;;;;22.80;45.20;;;;;;5067539;28;19921;-61
2023/05/22 13:41:39;;;;;;;;;;;22.80;45.10;;;;;;5074616;28;19921;-59
2023/05/22 13:44:06;;;;;;;;;;;22.80;45.10;;;;;;5067257;28;19924;-59
2023/05/22 13:46:33;;;;;;;;;;;22.80;45.10;;;;;;5063242;28;19929;-59
2023/05/22 13:49:03;;;;;;;;;;;22.80;45.10;;;;;;5070915;28;20072;-60
2023/05/22 13:51:30;;;;;;;;;;;22.80;45.10;;;;;;5086386;28;19924;-62
2023/05/22 13:53:57;;;;;;;;;;;22.80;45.10;;;;;;5074022;28;19925;-58
2023/05/22 13:56:23;;;;;;;;;;;22.80;45.10;;;;;;5066893;28;19932;-59
2023/05/22 13:58:50;;;;;;;;;;;22.80;45.10;;;;;;5071431;28;19924;-59
2023/05/22 14:01:17;;;;;;;;;;;22.80;45.10;;;;;;5072876;28;19928;-59
2023/05/22 14:03:44;;;;;;;;;;;22.80;45.10;;;;;;5069932;28;19964;-60
2023/05/22 14:06:13;;;;;;;;;;;22.80;45.10;;;;;;5072229;28;19932;-61
2023/05/22 14:08:39;;;;;;;;;;;22.80;45.10;;;;;;5070673;28;20197;-57
2023/05/22 14:11:07;;;;;;;;;;;22.80;45.10;;;;;;5094104;27;19931;-59
2023/05/22 14:13:34;;;;;;;;;;;22.80;45.10;;;;;;5073580;28;19982;-60
2023/05/22 14:16:01;;;;;;;;;;;22.80;45.00;;;;;;5071635;28;19974;-58
2023/05/22 14:18:28;;;;;;;;;;;22.80;45.00;;;;;;5069196;28;20171;-59
2023/05/22 14:20:55;;;;;;;;;;;22.80;44.90;;;;;;5071394;28;19924;-59
2023/05/22 14:23:23;;;;;;;;;;;22.80;44.90;;;;;;5092709;27;20391;-58